Time;durP1;ratioP1;P1;durP2;ratioP2;P2;SDS_P1;SDS_P2;PMS_P1;PMS_P2;Temp;Humidity;BMP_temperature;BMP_pressure;BME280_temperature;BME280_humidity;BME280_pressure;Samples;Min_cycle;Max_cycle;Signal;HPM_P1;HPM_P2
2023/12/23 00:00:31;;;;;;;10.65;7.70;;;;;;;1.81;100.00;95826.72;1222455;75;2920772;-66
2023/12/23 00:03:03;;;;;;;9.40;8.10;;;;;;;1.95;100.00;95827.19;1224016;75;2924031;-66
2023/12/23 00:05:36;;;;;;;9.35;7.45;;;;;;;2.01;100.00;95831.47;1223999;75;2917518;-66
2023/12/23 00:08:09;;;;;;;10.50;8.40;;;;;;;1.85;100.00;95830.00;1223743;75;2915028;-66
2023/12/23 00:10:42;;;;;;;8.20;6.35;;;;;;;2.56;100.00;95836.34;1222728;75;2925912;-67
2023/12/23 00:13:17;;;;;;;4.10;3.60;;;;;;;3.63;100.00;95829.00;1223693;75;2925032;-66
2023/12/23 00:15:50;;;;;;;1.50;1.40;;;;;;;4.63;100.00;95830.50;1223578;75;2924169;-66
2023/12/23 00:18:23;;;;;;;0.50;0.50;;;;;;;5.65;100.00;95821.78;1223146;75;2930149;-66
2023/12/23 00:20:56;;;;;;;0.40;0.40;;;;;;;5.98;100.00;95818.44;1222691;75;2946118;-67
2023/12/23 00:23:28;;;;;;;0.50;0.50;;;;;;;6.27;100.00;95804.91;1223303;75;2927589;-65
2023/12/23 00:26:01;;;;;;;0.40;0.40;;;;;;;6.67;100.00;95809.16;1223260;75;2921939;-68
2023/12/23 00:28:37;;;;;;;0.85;0.50;;;;;;;6.72;100.00;95805.69;1224325;75;2918998;-67
2023/12/23 00:31:10;;;;;;;0.80;0.55;;;;;;;6.97;100.00;95812.09;1222916;75;2917429;-67
2023/12/23 00:33:44;;;;;;;1.35;0.80;;;;;;;7.17;100.00;95815.78;1223891;75;2917980;-68
2023/12/23 00:36:17;;;;;;;0.45;0.45;;;;;;;7.37;100.00;95817.47;1223325;75;2920153;-68
2023/12/23 00:38:50;;;;;;;0.80;0.45;;;;;;;7.61;100.00;95811.47;1223268;75;2925023;-66
2023/12/23 00:41:22;;;;;;;0.75;0.30;;;;;;;7.91;95.59;95819.75;1222314;75;2921118;-66
2023/12/23 00:43:58;;;;;;;0.30;0.30;;;;;;;7.98;96.07;95829.38;1222285;75;2925771;-70
2023/12/23 00:46:31;;;;;;;0.20;0.20;;;;;;;8.07;93.86;95829.09;1222863;75;2919741;-67
2023/12/23 00:49:03;;;;;;;0.35;0.35;;;;;;;8.15;93.37;95843.66;1223743;75;2919620;-67
2023/12/23 00:51:36;;;;;;;0.30;0.30;;;;;;;8.19;91.58;95832.50;1223449;75;2922522;-67
2023/12/23 00:54:09;;;;;;;0.60;0.20;;;;;;;8.17;93.46;95826.81;1222572;75;2933543;-66
2023/12/23 00:56:42;;;;;;;0.40;0.30;;;;;;;8.19;92.21;95838.69;1223526;75;2916162;-67
2023/12/23 00:59:17;;;;;;;0.20;0.20;;;;;;;8.25;91.33;95839.41;1223165;75;2933172;-65
2023/12/23 01:01:50;;;;;;;0.20;0.20;;;;;;;8.29;90.96;95842.59;1223699;75;2923296;-67
2023/12/23 01:04:23;;;;;;;1.60;0.20;;;;;;;8.32;90.47;95855.22;1223783;75;2933667;-68
2023/12/23 01:06:56;;;;;;;0.20;0.20;;;;;;;8.50;87.83;95867.53;1223684;75;2929844;-68
2023/12/23 01:09:29;;;;;;;0.20;0.20;;;;;;;8.49;87.79;95873.47;1224501;75;2920542;-68
2023/12/23 01:12:02;;;;;;;0.20;0.20;;;;;;;8.52;86.20;95875.22;1222722;75;2918537;-68
2023/12/23 01:14:37;;;;;;;0.20;0.20;;;;;;;8.60;87.20;95880.88;1223619;75;2926148;-67
2023/12/23 01:17:10;;;;;;;0.20;0.20;;;;;;;8.63;87.63;95901.69;1223061;75;2934708;-66
2023/12/23 01:19:43;;;;;;;0.30;0.30;;;;;;;8.67;85.88;95915.78;1224177;75;2914658;-67
2023/12/23 01:22:16;;;;;;;0.20;0.20;;;;;;;8.65;87.87;95918.28;1224199;75;2910605;-67
2023/12/23 01:24:49;;;;;;;0.20;0.20;;;;;;;8.65;87.40;95929.19;1223881;75;2926551;-70
2023/12/23 01:27:22;;;;;;;0.20;0.20;;;;;;;8.58;89.68;95930.47;1223588;75;2932453;-68
2023/12/23 01:29:58;;;;;;;0.20;0.20;;;;;;;8.66;88.60;95927.94;1223951;75;2922432;-67
2023/12/23 01:32:31;;;;;;;0.20;0.20;;;;;;;8.65;89.56;95926.47;1223192;75;2928540;-67
2023/12/23 01:35:03;;;;;;;1.90;0.30;;;;;;;8.69;88.87;95940.59;1222880;75;2924225;-67
2023/12/23 01:37:37;;;;;;;1.55;0.95;;;;;;;7.90;95.45;95922.53;1221597;75;2919987;-66
2023/12/23 01:40:12;;;;;;;1.75;1.30;;;;;;;7.72;98.22;95914.16;1223868;75;2927295;-65
2023/12/23 01:42:45;;;;;;;1.95;1.15;;;;;;;7.86;100.00;95921.31;1224735;75;2924408;-66
2023/12/23 01:45:20;;;;;;;1.60;1.10;;;;;;;7.84;100.00;95923.78;1224598;75;2916062;-67
2023/12/23 01:47:55;;;;;;;1.20;0.80;;;;;;;7.75;100.00;95926.81;1223727;75;2914810;-68
2023/12/23 01:50:29;;;;;;;0.20;0.20;;;;;;;8.08;100.00;95931.41;1222784;75;2924754;-67
2023/12/23 01:53:04;;;;;;;0.10;0.10;;;;;;;8.17;100.00;95925.66;1222706;75;2915323;-66
2023/12/23 01:55:38;;;;;;;0.40;0.20;;;;;;;8.22;98.38;95940.53;1223191;75;2927469;-66
2023/12/23 01:58:11;;;;;;;0.40;0.20;;;;;;;8.20;100.00;95941.03;1221759;75;2918792;-68
2023/12/23 02:00:46;;;;;;;0.65;0.20;;;;;;;8.22;99.55;95959.59;1223349;75;2928494;-67
2023/12/23 02:03:20;;;;;;;0.40;0.20;;;;;;;8.30;99.40;95963.31;1220965;67;3068245;-67
2023/12/23 02:05:53;;;;;;;0.25;0.20;;;;;;;8.25;99.97;95962.09;1224249;75;2914092;-66
2023/12/23 02:08:26;;;;;;;0.60;0.20;;;;;;;8.27;100.00;95956.88;1223906;75;2921243;-66
2023/12/23 02:11:10;;;;;;;0.25;0.20;;;;;;;8.23;100.00;95959.09;1222972;75;2925282;-67
2023/12/23 02:13:54;;;;;;;0.40;0.20;;;;;;;8.11;100.00;95974.75;1222922;75;2923763;-66
2023/12/23 02:16:30;;;;;;;0.20;0.20;;;;;;;8.11;100.00;95966.56;1223314;75;2922803;-66
2023/12/23 02:19:03;;;;;;;0.20;0.20;;;;;;;7.99;100.00;95962.41;1223133;75;2925478;-66
2023/12/23 02:21:39;;;;;;;0.20;0.20;;;;;;;8.03;100.00;95957.44;1222940;75;2935878;-66
2023/12/23 02:24:12;;;;;;;0.20;0.20;;;;;;;8.04;100.00;95963.63;1223646;75;2925882;-68
2023/12/23 02:26:47;;;;;;;0.20;0.20;;;;;;;8.12;100.00;95980.94;1223616;75;2922404;-66
2023/12/23 02:29:21;;;;;;;0.20;0.20;;;;;;;8.07;100.00;95987.88;1224450;75;2918408;-69
2023/12/23 02:31:54;;;;;;;0.20;0.20;;;;;;;8.08;100.00;95975.75;1223757;75;2922445;-65
2023/12/23 02:34:28;;;;;;;0.40;0.30;;;;;;;8.07;100.00;95970.81;1223732;75;2915431;-68
2023/12/23 02:37:03;;;;;;;0.40;0.40;;;;;;;8.16;100.00;95967.06;1223572;75;2928984;-68
2023/12/23 02:39:36;;;;;;;0.70;0.70;;;;;;;8.13;100.00;95984.41;1188649;75;5384562;-66
2023/12/23 02:42:09;;;;;;;0.60;0.50;;;;;;;8.11;100.00;95976.75;1222921;75;2939363;-66
2023/12/23 02:44:42;;;;;;;0.65;0.50;;;;;;;8.14;100.00;95986.63;1222743;75;2940895;-66
2023/12/23 02:47:15;;;;;;;0.75;0.60;;;;;;;8.09;100.00;96006.47;1224075;75;2923377;-68
2023/12/23 02:49:48;;;;;;;0.40;0.30;;;;;;;8.11;100.00;96010.19;1224301;75;2927773;-66
2023/12/23 02:52:23;;;;;;;0.70;0.40;;;;;;;8.09;100.00;96020.84;1220917;75;2952369;-67
2023/12/23 02:54:56;;;;;;;0.60;0.50;;;;;;;8.00;100.00;96029.28;1223470;75;2974105;-68
2023/12/23 02:57:29;;;;;;;0.50;0.40;;;;;;;8.13;100.00;96025.28;1224034;75;2914550;-67
2023/12/23 03:00:02;;;;;;;0.30;0.30;;;;;;;8.10;100.00;96030.50;1223699;75;2921866;-66
2023/12/23 03:02:35;;;;;;;0.55;0.40;;;;;;;7.84;100.00;96033.53;1222943;75;2917889;-69
2023/12/23 03:05:10;;;;;;;0.20;0.20;;;;;;;7.97;100.00;96033.00;1224324;75;2923576;-66
2023/12/23 03:07:47;;;;;;;0.35;0.30;;;;;;;7.87;100.00;96037.22;1224631;75;2930509;-68
2023/12/23 03:10:20;;;;;;;0.60;0.40;;;;;;;7.96;100.00;96045.16;1223326;75;2917877;-67
2023/12/23 03:12:53;;;;;;;0.30;0.30;;;;;;;8.00;100.00;96040.19;1223743;75;2920641;-66
2023/12/23 03:15:26;;;;;;;0.50;0.40;;;;;;;8.04;100.00;96043.41;1224371;75;2918122;-67
2023/12/23 03:17:59;;;;;;;0.40;0.30;;;;;;;7.97;100.00;96041.19;1223477;75;2924830;-67
2023/12/23 03:20:32;;;;;;;0.50;0.40;;;;;;;7.95;100.00;96032.75;1224173;75;2940135;-70
2023/12/23 03:23:08;;;;;;;0.40;0.40;;;;;;;7.80;100.00;96032.28;1223851;75;2923241;-68
2023/12/23 03:25:40;;;;;;;0.20;0.20;;;;;;;7.93;100.00;96037.22;1223365;75;2918629;-67
2023/12/23 03:28:13;;;;;;;0.30;0.30;;;;;;;8.06;100.00;96038.19;1223915;75;2935078;-70
2023/12/23 03:30:46;;;;;;;0.40;0.30;;;;;;;7.91;100.00;96029.53;1224248;75;2921634;-67
2023/12/23 03:33:19;;;;;;;0.30;0.30;;;;;;;7.97;100.00;96027.56;1223006;75;2923363;-66
2023/12/23 03:35:52;;;;;;;0.40;0.20;;;;;;;7.96;100.00;96028.81;1223827;75;2922106;-68
2023/12/23 03:38:28;;;;;;;0.30;0.30;;;;;;;8.03;100.00;96036.47;1223073;75;2919706;-66
2023/12/23 03:41:01;;;;;;;0.20;0.20;;;;;;;8.01;100.00;96049.09;1224077;67;2926024;-66
2023/12/23 03:43:33;;;;;;;0.40;0.20;;;;;;;7.77;100.00;96042.19;1224124;75;2917740;-66
2023/12/23 03:46:07;;;;;;;0.20;0.20;;;;;;;7.74;100.00;96043.16;1220990;75;2924981;-68
2023/12/23 03:48:40;;;;;;;0.20;0.20;;;;;;;7.78;100.00;96045.66;1224183;75;2923366;-65
2023/12/23 03:51:13;;;;;;;0.20;0.20;;;;;;;7.81;100.00;96053.56;1224166;75;2926105;-69
2023/12/23 03:53:48;;;;;;;0.20;0.20;;;;;;;7.89;100.00;96042.94;1224398;75;2925589;-67
2023/12/23 03:56:21;;;;;;;0.20;0.20;;;;;;;7.96;100.00;96055.28;1224369;75;2925932;-68
2023/12/23 03:58:54;;;;;;;0.10;0.10;;;;;;;7.72;100.00;96063.97;1224377;75;2915894;-67
2023/12/23 04:01:27;;;;;;;0.20;0.20;;;;;;;7.60;100.00;96066.72;1223599;75;2923385;-67
2023/12/23 04:04:00;;;;;;;0.50;0.25;;;;;;;7.66;100.00;96083.03;1224201;75;2924655;-65
2023/12/23 04:06:33;;;;;;;0.10;0.10;;;;;;;7.74;100.00;96089.47;1224501;75;2913484;-67
2023/12/23 04:09:10;;;;;;;0.50;0.20;;;;;;;7.73;100.00;96104.34;1224216;75;2922296;-65
2023/12/23 04:11:43;;;;;;;0.40;0.20;;;;;;;7.74;100.00;96107.81;1224100;75;2911937;-67
2023/12/23 04:14:15;;;;;;;0.20;0.20;;;;;;;7.75;100.00;96112.03;1222774;75;2914657;-67
2023/12/23 04:16:48;;;;;;;0.50;0.30;;;;;;;7.81;100.00;96131.81;1222783;75;2958126;-68
2023/12/23 04:19:21;;;;;;;0.20;0.20;;;;;;;7.79;100.00;96129.63;1223904;75;2923790;-66
2023/12/23 04:21:54;;;;;;;0.40;0.40;;;;;;;7.93;100.00;96138.78;1223640;75;2910141;-68
2023/12/23 04:24:29;;;;;;;0.30;0.30;;;;;;;7.82;100.00;96139.50;1223152;75;2917134;-67
2023/12/23 04:27:02;;;;;;;0.65;0.60;;;;;;;7.80;100.00;96139.25;1224406;75;2881893;-67
2023/12/23 04:29:35;;;;;;;0.45;0.45;;;;;;;7.93;100.00;96143.47;1221887;75;2933027;-65
2023/12/23 04:32:09;;;;;;;0.50;0.50;;;;;;;7.99;100.00;96157.88;1223309;75;2927819;-66
2023/12/23 04:34:42;;;;;;;0.80;0.70;;;;;;;7.93;100.00;96155.13;1223586;75;2914364;-68
2023/12/23 04:37:15;;;;;;;0.35;0.35;;;;;;;7.97;100.00;96163.06;1223775;75;2929797;-66
2023/12/23 04:39:50;;;;;;;0.30;0.30;;;;;;;8.05;100.00;96177.66;1223327;75;2935959;-65
2023/12/23 04:42:23;;;;;;;0.30;0.30;;;;;;;8.15;100.00;96184.34;1224071;75;2929098;-68
2023/12/23 04:44:56;;;;;;;0.30;0.30;;;;;;;8.03;100.00;96186.34;1223804;75;2924054;-67
2023/12/23 04:47:29;;;;;;;0.40;0.20;;;;;;;7.99;100.00;96209.63;1223530;75;2923646;-68
2023/12/23 04:50:03;;;;;;;0.20;0.20;;;;;;;7.92;100.00;96215.56;1223235;75;2921651;-67
2023/12/23 04:52:35;;;;;;;0.40;0.30;;;;;;;8.04;100.00;96236.16;1223579;75;2934401;-67
2023/12/23 04:55:12;;;;;;;0.40;0.40;;;;;;;8.00;100.00;96230.94;1223164;75;2924929;-65
2023/12/23 04:57:45;;;;;;;1.10;0.70;;;;;;;7.90;100.00;96241.31;1224376;75;2915061;-65
2023/12/23 05:00:19;;;;;;;0.85;0.65;;;;;;;8.00;100.00;96241.81;1222644;75;2921523;-68
2023/12/23 05:02:52;;;;;;;0.65;0.45;;;;;;;8.00;100.00;96262.88;1224058;75;2919964;-67
2023/12/23 05:05:25;;;;;;;0.40;0.30;;;;;;;7.96;100.00;96274.03;1223890;75;2928806;-68
2023/12/23 05:07:58;;;;;;;0.20;0.20;;;;;;;8.11;100.00;96280.00;1223238;75;2926010;-68
2023/12/23 05:10:33;;;;;;;0.70;0.50;;;;;;;8.16;98.47;96305.06;1223416;75;2923173;-67
2023/12/23 05:13:07;;;;;;;1.25;0.50;;;;;;;8.20;96.40;96319.19;1223056;75;2922648;-68
2023/12/23 05:15:40;;;;;;;1.45;0.40;;;;;;;8.30;96.55;96321.19;1222236;75;2929969;-68
2023/12/23 05:18:13;;;;;;;0.70;0.50;;;;;;;8.32;96.14;96324.19;1223373;75;2913744;-70
2023/12/23 05:20:45;;;;;;;7.10;6.40;;;;;;;8.32;96.66;96332.34;1222501;75;2921874;-69
2023/12/23 05:23:19;;;;;;;1.70;1.60;;;;;;;8.24;98.92;96333.31;1222924;75;2925573;-68
2023/12/23 05:25:54;;;;;;;1.30;1.20;;;;;;;8.38;100.00;96335.09;1223513;75;2924177;-70
2023/12/23 05:28:27;;;;;;;2.25;2.05;;;;;;;8.23;100.00;96345.47;1222904;75;2923346;-68
2023/12/23 05:31:00;;;;;;;2.15;2.05;;;;;;;8.24;100.00;96344.22;1222812;75;2925734;-68
2023/12/23 05:33:33;;;;;;;0.80;0.80;;;;;;;8.18;100.00;96348.91;1220837;75;2964498;-68
2023/12/23 05:36:06;;;;;;;2.75;2.45;;;;;;;8.14;100.00;96368.22;1222642;75;2924833;-67
2023/12/23 05:38:39;;;;;;;2.70;1.85;;;;;;;7.94;100.00;96373.84;1222831;75;2926207;-69
2023/12/23 05:41:15;;;;;;;10.05;6.80;;;;;;;8.16;100.00;96375.94;1215942;75;3252929;-67
2023/12/23 05:43:50;;;;;;;4.40;2.80;;;;;;;8.00;100.00;96383.53;1223534;75;2924890;-67
2023/12/23 05:46:23;;;;;;;2.45;1.20;;;;;;;7.92;100.00;96385.25;1223259;75;2917657;-67
2023/12/23 05:48:56;;;;;;;1.00;0.80;;;;;;;7.91;100.00;96383.75;1223556;75;2921148;-67
2023/12/23 05:51:29;;;;;;;1.55;1.30;;;;;;;8.09;100.00;96386.06;1223126;75;2922260;-66
2023/12/23 05:54:01;;;;;;;5.10;3.40;;;;;;;7.97;100.00;96383.78;1223762;75;2921199;-67
2023/12/23 05:56:37;;;;;;;4.95;2.95;;;;;;;8.11;100.00;96397.22;1224492;75;2917886;-65
2023/12/23 05:59:10;;;;;;;4.60;3.30;;;;;;;8.16;100.00;96406.66;1223375;75;2957071;-69
2023/12/23 06:01:43;;;;;;;55.90;37.05;;;;;;;7.95;100.00;96408.78;1223733;75;2921808;-66
2023/12/23 06:04:15;;;;;;;27.55;19.65;;;;;;;7.79;100.00;96415.66;1222757;75;2927469;-68
2023/12/23 06:06:48;;;;;;;5.80;4.10;;;;;;;7.63;100.00;96433.38;1223763;75;2924586;-68
2023/12/23 06:09:23;;;;;;;1.90;1.30;;;;;;;7.52;100.00;96446.91;1223416;75;2925071;-70
2023/12/23 06:11:59;;;;;;;0.95;0.80;;;;;;;7.64;100.00;96447.75;1222369;75;2916556;-67
2023/12/23 06:14:31;;;;;;;0.70;0.70;;;;;;;7.47;100.00;96445.66;1222668;75;2920196;-67
2023/12/23 06:17:04;;;;;;;10.45;6.20;;;;;;;7.45;100.00;96441.91;1224009;75;2916598;-67
2023/12/23 06:19:37;;;;;;;14.30;8.90;;;;;;;7.59;100.00;96432.13;1223137;75;2913656;-67
2023/12/23 06:22:10;;;;;;;8.35;5.20;;;;;;;7.45;100.00;96441.91;1220904;75;2949316;-69
2023/12/23 06:24:43;;;;;;;9.10;6.25;;;;;;;7.24;100.00;96431.13;1222773;75;2923641;-67
2023/12/23 06:27:19;;;;;;;11.10;7.60;;;;;;;7.49;100.00;96437.00;1224277;75;2922832;-67
2023/12/23 06:29:52;;;;;;;9.60;7.65;;;;;;;7.22;100.00;96422.69;1224460;75;2921038;-67
2023/12/23 06:32:25;;;;;;;10.50;8.25;;;;;;;7.28;100.00;96460.84;1224087;75;2927366;-69
2023/12/23 06:34:58;;;;;;;6.55;5.05;;;;;;;7.16;100.00;96478.31;1224843;75;2919043;-69
2023/12/23 06:37:31;;;;;;;4.35;3.55;;;;;;;7.37;100.00;96473.53;1223781;75;2936752;-66
2023/12/23 06:40:04;;;;;;;3.95;3.25;;;;;;;7.24;100.00;96471.22;1224627;75;2913314;-67
2023/12/23 06:42:39;;;;;;;4.20;2.75;;;;;;;7.27;100.00;96467.53;1223709;75;2992580;-67
2023/12/23 06:45:15;;;;;;;2.45;2.25;;;;;;;7.31;100.00;96464.56;1224450;75;2916910;-64
2023/12/23 06:47:48;;;;;;;3.00;2.05;;;;;;;7.37;100.00;96474.28;1223646;75;2924894;-65
2023/12/23 06:50:21;;;;;;;2.50;1.85;;;;;;;7.10;100.00;96472.09;1223295;75;2922972;-65
2023/12/23 06:52:54;;;;;;;1.60;1.40;;;;;;;7.11;100.00;96473.56;1222764;75;2925969;-65
2023/12/23 06:55:27;;;;;;;1.45;1.10;;;;;;;7.00;100.00;96463.34;1223198;75;2916074;-68
2023/12/23 06:58:02;;;;;;;2.05;1.20;;;;;;;7.05;100.00;96454.47;1222490;83;2941771;-68
2023/12/23 07:00:35;;;;;;;1.85;0.80;;;;;;;6.81;100.00;96446.59;1221742;75;2927707;-67
2023/12/23 07:03:10;;;;;;;1.15;0.70;;;;;;;7.05;100.00;96457.19;1223194;75;2920820;-68
2023/12/23 07:05:42;;;;;;;0.70;0.65;;;;;;;7.12;100.00;96434.22;1223725;75;2920518;-67
2023/12/23 07:08:16;;;;;;;0.70;0.50;;;;;;;7.19;100.00;96426.41;1222986;75;2920811;-66
2023/12/23 07:10:49;;;;;;;0.50;0.50;;;;;;;6.96;100.00;96435.59;1223223;75;2923288;-67
2023/12/23 07:13:24;;;;;;;0.75;0.70;;;;;;;6.69;100.00;96432.13;1222560;75;2925320;-66
2023/12/23 07:15:57;;;;;;;0.95;0.70;;;;;;;6.98;100.00;96430.41;1222642;75;2926556;-68
2023/12/23 07:18:30;;;;;;;0.85;0.70;;;;;;;6.91;100.00;96428.88;1219206;75;3022316;-69
2023/12/23 07:21:03;;;;;;;0.85;0.80;;;;;;;6.97;100.00;96429.66;1222440;75;2924891;-68
2023/12/23 07:23:36;;;;;;;1.20;0.80;;;;;;;6.80;100.00;96429.50;1150845;75;5905479;-68
2023/12/23 07:26:17;;;;;;;5.50;3.20;;;;;;;6.37;100.00;96425.84;1222948;75;2873022;-69
2023/12/23 07:28:52;;;;;;;4.60;2.80;;;;;;;6.74;100.00;96423.28;1223083;75;2923587;-69
2023/12/23 07:31:25;;;;;;;3.35;2.10;;;;;;;6.79;100.00;96419.13;1220594;75;2922235;-69
2023/12/23 07:33:58;;;;;;;3.40;1.85;;;;;;;6.39;100.00;96431.56;1223461;75;2924147;-66
2023/12/23 07:36:31;;;;;;;5.20;4.35;;;;;;;5.94;100.00;96450.78;1223050;75;2920085;-68
2023/12/23 07:39:05;;;;;;;4.35;2.60;;;;;;;6.19;100.00;96454.06;1224383;75;2915488;-67
2023/12/23 07:41:37;;;;;;;2.50;1.70;;;;;;;6.51;100.00;96452.19;1222244;75;2927687;-65
2023/12/23 07:44:13;;;;;;;2.25;1.50;;;;;;;6.29;100.00;96465.53;1221492;75;2928505;-67
2023/12/23 07:46:46;;;;;;;1.90;1.20;;;;;;;6.56;100.00;96467.81;1223471;75;2924990;-67
2023/12/23 07:49:19;;;;;;;2.80;1.30;;;;;;;6.97;100.00;96470.47;1224001;75;2921749;-67
2023/12/23 07:51:52;;;;;;;3.00;1.65;;;;;;;7.07;100.00;96478.47;1223336;75;2927279;-69
2023/12/23 07:54:25;;;;;;;1.50;1.10;;;;;;;7.21;100.00;96488.50;1223413;75;2919408;-66
2023/12/23 07:56:57;;;;;;;1.75;1.25;;;;;;;6.92;100.00;96492.19;1223117;75;2930110;-66
2023/12/23 07:59:33;;;;;;;1.95;1.30;;;;;;;7.29;100.00;96488.81;1222684;75;2907278;-68
2023/12/23 08:02:06;;;;;;;1.85;1.30;;;;;;;7.55;100.00;96484.09;1222856;75;2922893;-65
2023/12/23 08:04:39;;;;;;;1.90;1.30;;;;;;;7.71;100.00;96493.59;1222626;75;2927926;-67
2023/12/23 08:07:12;;;;;;;2.75;1.15;;;;;;;7.44;100.00;96501.06;1223284;75;2926384;-67
2023/12/23 08:09:45;;;;;;;2.00;1.35;;;;;;;7.76;100.00;96501.06;1223943;75;2925615;-66
2023/12/23 08:12:17;;;;;;;3.90;1.65;;;;;;;7.90;100.00;96502.91;1222818;75;2968640;-67
2023/12/23 08:14:53;;;;;;;3.95;2.00;;;;;;;7.78;100.00;96501.31;1223387;67;2922167;-67
2023/12/23 08:17:26;;;;;;;2.70;1.60;;;;;;;8.03;100.00;96499.00;1225066;75;2917690;-66
2023/12/23 08:19:58;;;;;;;1.95;1.25;;;;;;;8.14;100.00;96506.50;1223819;75;2922810;-65
2023/12/23 08:22:31;;;;;;;1.25;0.90;;;;;;;8.37;100.00;96502.66;1222432;75;2918781;-67
2023/12/23 08:25:04;;;;;;;1.30;0.85;;;;;;;8.31;100.00;96508.09;1222735;75;2931008;-69
2023/12/23 08:27:37;;;;;;;1.10;0.95;;;;;;;8.38;100.00;96497.97;1224175;75;2919916;-65
2023/12/23 08:30:15;;;;;;;2.05;0.95;;;;;;;8.29;100.00;96498.91;1223589;75;2922044;-66
2023/12/23 08:32:47;;;;;;;1.30;0.90;;;;;;;8.49;100.00;96500.75;1222892;75;2922324;-66
2023/12/23 08:35:21;;;;;;;1.15;0.85;;;;;;;8.37;100.00;96494.50;1223099;75;2946799;-66
2023/12/23 08:37:54;;;;;;;0.90;0.80;;;;;;;8.88;100.00;96503.63;1223271;75;2922431;-67
2023/12/23 08:40:27;;;;;;;1.35;0.80;;;;;;;9.02;100.00;96509.34;1223641;75;2923487;-68
2023/12/23 08:43:00;;;;;;;0.80;0.70;;;;;;;9.46;100.00;96519.59;1223029;75;2928245;-69
2023/12/23 08:45:35;;;;;;;1.00;0.70;;;;;;;9.41;100.00;96528.53;1223262;75;2915226;-66
2023/12/23 08:48:09;;;;;;;1.30;0.80;;;;;;;9.75;100.00;96523.81;1222066;75;2924020;-67
2023/12/23 08:50:42;;;;;;;0.80;0.80;;;;;;;9.95;100.00;96525.53;1222831;75;2919698;-65
2023/12/23 08:53:16;;;;;;;0.75;0.70;;;;;;;10.57;97.47;96530.16;1223633;75;2918261;-66
2023/12/23 08:55:49;;;;;;;1.10;1.00;;;;;;;10.94;96.95;96542.69;1224019;75;2921573;-68
2023/12/23 08:58:22;;;;;;;3.50;2.65;;;;;;;10.82;92.77;96539.25;1224063;75;2933181;-67
2023/12/23 09:00:58;;;;;;;7.70;4.90;;;;;;;10.78;94.70;96544.28;1220778;75;3087506;-69
2023/12/23 09:03:31;;;;;;;4.45;3.20;;;;;;;11.43;96.84;96537.47;1223581;75;2921919;-67
2023/12/23 09:06:06;;;;;;;2.35;1.70;;;;;;;10.74;96.29;96538.31;1219420;75;3127298;-67
2023/12/23 09:08:39;;;;;;;5.45;3.65;;;;;;;10.88;92.29;96548.22;1224366;75;2891000;-67
2023/12/23 09:11:12;;;;;;;4.65;3.10;;;;;;;11.61;90.51;96544.28;1223428;75;2948421;-70
2023/12/23 09:13:45;;;;;;;2.95;1.80;;;;;;;12.33;86.03;96548.41;1218766;75;2922527;-68
2023/12/23 09:16:20;;;;;;;1.40;0.80;;;;;;;12.44;80.58;96552.34;1219421;75;2927604;-66
2023/12/23 09:18:53;;;;;;;2.85;0.70;;;;;;;11.91;80.25;96558.06;1222872;75;2918682;-67
2023/12/23 09:21:26;;;;;;;1.85;0.90;;;;;;;13.07;76.61;96550.34;1218408;75;3018430;-68
2023/12/23 09:23:59;;;;;;;0.70;0.70;;;;;;;13.36;74.84;96549.47;1223000;75;2926774;-67
2023/12/23 09:26:31;;;;;;;2.20;1.00;;;;;;;12.84;73.79;96549.88;1214852;75;3411780;-67
2023/12/23 09:29:04;;;;;;;0.90;0.75;;;;;;;13.71;72.33;96553.22;1223389;75;2920672;-68
2023/12/23 09:31:40;;;;;;;1.20;1.00;;;;;;;13.71;71.31;96557.94;1223817;75;2919417;-67
2023/12/23 09:34:13;;;;;;;1.20;1.00;;;;;;;13.21;69.13;96560.88;1224106;75;2915147;-67
2023/12/23 09:36:47;;;;;;;1.05;0.95;;;;;;;13.75;68.77;96556.38;1204839;75;3698562;-68
2023/12/23 09:39:20;;;;;;;1.90;1.10;;;;;;;13.69;66.61;96552.25;1220213;75;2965090;-68
2023/12/23 09:41:54;;;;;;;1.40;1.00;;;;;;;14.31;64.76;96551.22;1224165;75;2920710;-68
2023/12/23 09:44:28;;;;;;;2.10;1.55;;;;;;;13.32;64.67;96545.53;1223386;75;2924272;-68
2023/12/23 09:47:04;;;;;;;2.15;1.35;;;;;;;13.18;66.25;96544.69;1224632;75;2933510;-71
2023/12/23 09:49:37;;;;;;;1.70;1.10;;;;;;;13.32;64.70;96545.53;1223694;75;2925183;-65
2023/12/23 09:52:10;;;;;;;1.90;1.40;;;;;;;12.52;66.29;96536.75;1224115;75;2927982;-68
2023/12/23 09:54:49;;;;;;;2.50;1.45;;;;;;;13.34;66.08;96545.75;1223120;75;2926642;-67
2023/12/23 09:57:23;;;;;;;2.20;1.30;;;;;;;13.20;65.07;96553.16;1223669;75;2914006;-66
2023/12/23 09:59:56;;;;;;;2.90;1.75;;;;;;;13.20;64.58;96550.41;1223485;75;2921962;-68
2023/12/23 10:02:32;;;;;;;4.95;2.10;;;;;;;12.69;65.76;96551.03;1221166;75;2937362;-69
2023/12/23 10:05:04;;;;;;;2.50;1.50;;;;;;;13.08;63.98;96552.56;1223161;75;2929059;-69
2023/12/23 10:07:37;;;;;;;1.95;1.25;;;;;;;13.32;62.39;96556.53;1223433;75;2928942;-68
2023/12/23 10:10:12;;;;;;;1.55;1.10;;;;;;;14.24;60.25;96561.59;1223170;75;2925637;-68
2023/12/23 10:12:44;;;;;;;1.10;1.00;;;;;;;13.68;60.84;96567.25;1223364;75;2927956;-69
2023/12/23 10:15:17;;;;;;;1.45;1.15;;;;;;;14.33;58.65;96554.19;1222286;75;2941374;-69
2023/12/23 10:17:53;;;;;;;1.60;1.20;;;;;;;15.76;55.58;96547.50;1223118;75;2925550;-68
2023/12/23 10:20:26;;;;;;;1.80;1.20;;;;;;;15.24;55.28;96540.16;1223027;75;2919032;-65
2023/12/23 10:22:59;;;;;;;1.65;1.10;;;;;;;16.41;54.78;96541.41;1221809;75;2931488;-69
2023/12/23 10:25:32;;;;;;;3.25;1.50;;;;;;;15.23;54.47;96524.91;1222237;75;2921758;-67
2023/12/23 10:28:06;;;;;;;1.55;1.10;;;;;;;14.62;56.37;96533.13;1222472;75;2923041;-66
2023/12/23 10:30:43;;;;;;;2.00;1.55;;;;;;;14.32;56.62;96536.94;1223658;75;2929203;-68
2023/12/23 10:33:21;;;;;;;2.50;1.00;;;;;;;13.14;59.50;96520.25;1222841;75;2942784;-67
2023/12/23 10:35:53;;;;;;;3.10;1.70;;;;;;;13.95;59.71;96529.56;1222181;75;2935080;-68
2023/12/23 10:38:30;;;;;;;4.10;1.80;;;;;;;14.68;58.39;96518.00;1224177;75;2925159;-68
2023/12/23 10:41:14;;;;;;;1.85;1.15;;;;;;;13.99;58.72;96510.75;1223665;75;2921107;-67
2023/12/23 10:43:48;;;;;;;1.70;1.35;;;;;;;15.12;56.45;96506.56;1223833;75;2939103;-68
2023/12/23 10:46:22;;;;;;;1.65;1.10;;;;;;;16.00;54.64;96512.56;1224109;75;2916862;-67
2023/12/23 10:48:58;;;;;;;1.45;1.20;;;;;;;15.55;54.49;96513.63;1223850;75;2925719;-69
2023/12/23 10:51:32;;;;;;;1.95;1.35;;;;;;;15.39;55.49;96512.00;1223798;75;2937495;-69
2023/12/23 10:54:07;;;;;;;1.65;1.20;;;;;;;15.39;55.37;96509.22;1223914;75;2905412;-67
2023/12/23 10:56:42;;;;;;;1.40;1.20;;;;;;;15.07;55.59;96505.41;1223622;75;2924030;-68
2023/12/23 10:59:15;;;;;;;1.75;1.25;;;;;;;15.86;53.61;96513.94;1224188;75;2918029;-70
2023/12/23 11:01:50;;;;;;;1.70;1.30;;;;;;;15.50;54.09;96495.19;1224412;75;2932388;-69
2023/12/23 11:04:27;;;;;;;2.05;1.40;;;;;;;17.24;52.30;96492.59;1224204;75;2929819;-68
2023/12/23 11:07:02;;;;;;;2.00;1.30;;;;;;;15.99;52.72;96491.75;1224461;75;2945052;-69
2023/12/23 11:09:36;;;;;;;2.55;1.50;;;;;;;16.33;53.23;96480.59;1222375;83;2924690;-67
2023/12/23 11:12:11;;;;;;;1.65;1.30;;;;;;;17.47;50.93;96478.81;1224444;75;2919863;-67
2023/12/23 11:14:44;;;;;;;3.30;1.45;;;;;;;15.60;53.33;96481.69;1222977;75;2920448;-70
2023/12/23 11:17:27;;;;;;;2.20;1.45;;;;;;;16.35;51.61;96477.28;1222419;75;2916941;-70
2023/12/23 11:20:05;;;;;;;1.85;1.20;;;;;;;17.64;49.29;96479.00;1223510;75;2927120;-70
2023/12/23 11:22:41;;;;;;;1.70;1.20;;;;;;;16.40;51.06;96474.38;1222318;75;2919148;-67
2023/12/23 11:25:41;;;;;;;1.75;1.15;;;;;;;17.53;48.84;96467.56;1223271;75;2918972;-68
2023/12/23 11:28:16;;;;;;;1.85;1.30;;;;;;;16.96;50.30;96460.25;1223002;75;2927523;-68
2023/12/23 11:30:51;;;;;;;1.20;1.10;;;;;;;16.94;49.84;96455.28;1223013;75;2925447;-69
2023/12/23 11:33:25;;;;;;;2.05;1.45;;;;;;;15.79;51.55;96454.63;1222893;75;2925036;-68
2023/12/23 11:36:02;;;;;;;1.75;1.30;;;;;;;16.58;51.13;96469.84;1221615;75;2924318;-70
2023/12/23 11:38:50;;;;;;;2.10;1.20;;;;;;;15.68;51.80;96454.88;1222935;75;2929521;-70
2023/12/23 11:41:25;;;;;;;1.50;1.20;;;;;;;16.42;50.67;96468.28;1223228;75;2944045;-69
2023/12/23 11:43:58;;;;;;;2.00;1.30;;;;;;;16.36;50.86;96457.41;1222988;75;2931949;-65
2023/12/23 11:46:31;;;;;;;1.10;1.00;;;;;;;16.27;51.52;96433.03;1223346;75;2925183;-68